Time;durP1;ratioP1;P1;durP2;ratioP2;P2;SDS_P1;SDS_P2;PMS_P1;PMS_P2;Temp;Humidity;BMP_temperature;BMP_pressure;BME280_temperature;BME280_humidity;BME280_pressure;Samples;Min_cycle;Max_cycle;Signal;HPM_P1;HPM_P2
2021/11/08 00:00:22;;;;;;;37.75;13.93;;;;;;;11.74;100.00;97170.31;4966190;28;20545;-63
2021/11/08 00:02:51;;;;;;;24.85;11.80;;;;;;;11.73;100.00;97185.34;4965696;28;20492;-63
2021/11/08 00:05:18;;;;;;;25.88;12.05;;;;;;;11.80;100.00;97185.44;4965569;28;20632;-64
2021/11/08 00:07:48;;;;;;;35.67;13.65;;;;;;;11.44;100.00;97122.25;4964516;28;20060;-63
2021/11/08 00:10:16;;;;;;;26.42;12.38;;;;;;;11.70;100.00;97181.34;4964432;28;20073;-64
2021/11/08 00:12:42;;;;;;;25.27;11.98;;;;;;;11.67;100.00;97153.53;4965911;28;20050;-63
2021/11/08 00:15:12;;;;;;;29.73;14.38;;;;;;;11.60;100.00;97125.69;4966467;28;20054;-65
2021/11/08 00:17:52;;;;;;;30.48;13.77;;;;;;;11.55;100.00;97112.94;4965718;28;20055;-63
2021/11/08 00:20:24;;;;;;;39.63;15.00;;;;;;;11.79;100.00;97150.56;4965899;28;20050;-64
2021/11/08 00:22:50;;;;;;;28.95;13.02;;;;;;;11.58;100.00;97106.63;4965447;28;20059;-64
2021/11/08 00:25:17;;;;;;;30.58;12.57;;;;;;;11.40;100.00;97085.34;4965515;28;20669;-63
2021/11/08 00:27:44;;;;;;;31.27;13.95;;;;;;;11.79;100.00;97156.88;4965504;28;20050;-63
2021/11/08 00:30:12;;;;;;;30.27;13.27;;;;;;;11.81;100.00;97125.97;4965705;28;20061;-64
2021/11/08 00:32:39;;;;;;;24.90;12.23;;;;;;;11.90;100.00;97118.97;4965201;28;20046;-65
2021/11/08 00:35:06;;;;;;;24.27;12.07;;;;;;;11.69;100.00;97090.16;4965902;28;20054;-64
2021/11/08 00:37:35;;;;;;;23.55;12.70;;;;;;;11.48;100.00;97039.88;4964761;28;20544;-64
2021/11/08 00:40:04;;;;;;;30.20;12.27;;;;;;;12.03;100.00;97116.75;4966072;28;20070;-64
2021/11/08 00:42:30;;;;;;;19.45;9.00;;;;;;;12.02;100.00;97113.19;4965129;28;20058;-64
2021/11/08 00:44:57;;;;;;;27.23;12.05;;;;;;;12.11;100.00;97112.88;4963985;28;20099;-64
2021/11/08 00:47:25;;;;;;;20.70;9.70;;;;;;;12.09;100.00;97104.16;4964854;28;20533;-65
2021/11/08 00:49:53;;;;;;;30.40;10.88;;;;;;;12.14;100.00;97112.13;4963817;28;20047;-65
2021/11/08 00:52:20;;;;;;;21.05;9.32;;;;;;;12.08;100.00;97094.19;4965215;28;20065;-64
2021/11/08 00:54:47;;;;;;;19.92;8.48;;;;;;;12.21;100.00;97095.56;4964046;28;20077;-64
2021/11/08 00:57:18;;;;;;;20.30;8.52;;;;;;;12.27;100.00;97105.13;4964739;28;20074;-64
2021/11/08 00:59:45;;;;;;;17.88;8.85;;;;;;;12.29;100.00;97101.97;4964023;28;20496;-64
2021/11/08 01:02:13;;;;;;;19.83;9.10;;;;;;;11.94;100.00;97036.56;4954914;28;20809;-63
2021/11/08 01:04:41;;;;;;;21.92;9.77;;;;;;;12.27;100.00;97084.88;4965048;28;20429;-64
2021/11/08 01:07:09;;;;;;;26.63;10.10;;;;;;;11.86;100.00;97042.38;4963431;28;20055;-63
2021/11/08 01:09:36;;;;;;;20.90;10.45;;;;;;;12.20;100.00;97082.84;4965173;28;20589;-64
2021/11/08 01:12:04;;;;;;;24.15;9.93;;;;;;;12.02;100.00;97079.88;4963624;28;20082;-65
2021/11/08 01:14:31;;;;;;;28.13;13.57;;;;;;;11.91;100.00;97103.94;4965286;28;20059;-64
2021/11/08 01:16:58;;;;;;;28.95;14.82;;;;;;;11.92;100.00;97082.50;4965115;28;20054;-63
2021/11/08 01:19:28;;;;;;;28.25;13.45;;;;;;;11.41;100.00;97034.25;4965318;28;20055;-64
2021/11/08 01:22:15;;;;;;;28.63;14.65;;;;;;;11.50;100.00;97043.09;4963860;28;20062;-63
2021/11/08 01:24:54;;;;;;;27.48;13.70;;;;;;;11.83;100.00;97079.22;4958894;28;20081;-63
2021/11/08 01:27:33;;;;;;;27.75;12.00;;;;;;;11.80;100.00;97074.44;4957507;28;20552;-65
2021/11/08 01:30:02;;;;;;;30.83;12.77;;;;;;;11.75;100.00;97075.56;4964485;28;20051;-65
2021/11/08 01:32:29;;;;;;;26.85;13.00;;;;;;;11.46;100.00;97026.41;4964907;28;20055;-65
2021/11/08 01:34:57;;;;;;;23.52;13.88;;;;;;;11.65;100.00;97061.56;4965253;28;20046;-63
2021/11/08 01:37:24;;;;;;;27.42;11.40;;;;;;;11.72;100.00;97068.00;4966208;28;20464;-63
2021/11/08 01:39:51;;;;;;;28.95;11.75;;;;;;;11.74;100.00;97059.31;4968776;28;20047;-63
2021/11/08 01:42:18;;;;;;;23.05;11.98;;;;;;;11.70;100.00;97064.00;4966886;28;20069;-63
2021/11/08 01:44:45;;;;;;;22.52;11.32;;;;;;;11.57;100.00;97087.59;4968518;28;20050;-64
2021/11/08 01:47:12;;;;;;;24.50;10.77;;;;;;;11.66;100.00;97063.97;4968122;28;20061;-65
2021/11/08 01:49:40;;;;;;;24.10;11.07;;;;;;;11.08;100.00;96973.22;4968321;28;20058;-63
2021/11/08 01:52:12;;;;;;;24.30;12.13;;;;;;;11.45;100.00;97024.00;4968548;28;20054;-64
2021/11/08 01:54:39;;;;;;;17.80;10.10;;;;;;;11.11;100.00;96975.22;4967280;28;20082;-63
2021/11/08 01:57:08;;;;;;;27.58;10.23;;;;;;;10.83;100.00;96928.50;4966692;28;20063;-64
2021/11/08 01:59:35;;;;;;;20.33;9.73;;;;;;;11.53;100.00;97064.53;4966683;28;20055;-63
2021/11/08 02:02:02;;;;;;;24.13;10.90;;;;;;;10.87;100.00;96931.31;4968463;28;20065;-64
2021/11/08 02:04:29;;;;;;;16.48;7.95;;;;;;;11.55;100.00;97040.81;4968232;28;20155;-64
2021/11/08 02:06:57;;;;;;;17.02;7.20;;;;;;;11.71;100.00;97043.41;4966335;28;20490;-64
2021/11/08 02:09:23;;;;;;;19.17;7.90;;;;;;;11.38;100.00;96996.19;4966567;28;20050;-63
2021/11/08 02:11:50;;;;;;;12.93;7.25;;;;;;;10.87;100.00;96914.69;4967602;28;20057;-63
2021/11/08 02:14:17;;;;;;;14.63;7.53;;;;;;;11.50;100.00;97020.91;4966511;28;20054;-65
2021/11/08 02:16:44;;;;;;;19.48;7.38;;;;;;;11.62;100.00;97035.31;4966913;28;20063;-64
2021/11/08 02:19:13;;;;;;;16.05;7.13;;;;;;;11.58;100.00;97033.69;4967902;28;20061;-64
2021/11/08 02:21:39;;;;;;;16.25;7.50;;;;;;;10.91;100.00;96932.19;4968168;28;20058;-65
2021/11/08 02:24:12;;;;;;;22.17;6.35;;;;;;;11.63;100.00;97036.16;4968431;28;20061;-64
2021/11/08 02:26:40;;;;;;;14.63;6.18;;;;;;;10.60;100.00;96884.28;4967475;28;20058;-65
2021/11/08 02:29:07;;;;;;;16.25;6.78;;;;;;;11.56;100.00;97031.28;4968164;28;20058;-64
2021/11/08 02:31:35;;;;;;;15.32;6.43;;;;;;;11.52;100.00;97040.75;4967709;28;20050;-64
2021/11/08 02:34:01;;;;;;;19.75;7.43;;;;;;;11.53;100.00;97031.25;4968079;28;20498;-63
2021/11/08 02:36:30;;;;;;;28.48;6.07;;;;;;;10.97;100.00;96955.63;4967679;28;20058;-63
2021/11/08 02:38:59;;;;;;;15.23;5.20;;;;;;;11.31;100.00;97010.75;4968069;28;20063;-63
2021/11/08 02:41:26;;;;;;;14.95;5.15;;;;;;;11.48;100.00;97032.38;4965766;28;20058;-64
2021/11/08 02:44:00;;;;;;;11.15;5.15;;;;;;;11.05;100.00;96949.00;4966073;28;20054;-64
2021/11/08 02:46:27;;;;;;;13.45;5.78;;;;;;;11.51;100.00;97014.97;4967058;28;20058;-64
2021/11/08 02:48:57;;;;;;;18.63;9.02;;;;;;;11.49;100.00;97030.41;4965424;28;20055;-64
2021/11/08 02:51:28;;;;;;;17.75;8.23;;;;;;;11.16;100.00;96989.53;4965624;28;20054;-63
2021/11/08 02:54:05;;;;;;;17.38;7.93;;;;;;;11.41;100.00;97039.81;4965936;28;20055;-64
2021/11/08 02:56:32;;;;;;;17.05;8.93;;;;;;;11.35;100.00;97024.69;4966912;28;20058;-64
2021/11/08 02:58:59;;;;;;;14.82;6.75;;;;;;;11.28;100.00;97036.47;4967609;28;20517;-63
2021/11/08 03:01:26;;;;;;;15.88;6.50;;;;;;;9.88;100.00;96818.28;4967063;28;20055;-64
2021/11/08 03:03:56;;;;;;;16.23;8.13;;;;;;;10.91;100.00;97001.47;4967000;28;20051;-65
2021/11/08 03:06:32;;;;;;;14.13;8.15;;;;;;;11.21;100.00;97035.53;4965153;28;20085;-63
2021/11/08 03:09:12;;;;;;;21.08;7.85;;;;;;;11.13;100.00;97034.66;4965641;28;20138;-63
2021/11/08 03:11:39;;;;;;;18.05;8.40;;;;;;;11.17;100.00;97029.97;4966809;28;20503;-63
2021/11/08 03:14:07;;;;;;;21.90;9.27;;;;;;;11.17;100.00;97034.72;4967432;28;20182;-63
2021/11/08 03:16:44;;;;;;;20.67;10.50;;;;;;;11.10;100.00;97023.50;4966729;28;20059;-63
2021/11/08 03:19:29;;;;;;;19.98;8.45;;;;;;;10.66;100.00;96982.50;4965491;28;20514;-63
2021/11/08 03:21:59;;;;;;;19.27;10.23;;;;;;;10.30;100.00;96921.38;4966439;28;20697;-64
2021/11/08 03:24:39;;;;;;;19.58;9.27;;;;;;;10.39;100.00;96944.88;4966911;28;20105;-63
2021/11/08 03:27:26;;;;;;;17.60;9.90;;;;;;;10.98;100.00;97020.97;4966281;28;20525;-64
2021/11/08 03:29:53;;;;;;;21.90;10.55;;;;;;;9.76;100.00;96860.75;4966911;28;20055;-63
2021/11/08 03:32:22;;;;;;;39.45;12.65;;;;;;;10.60;100.00;96981.22;4965092;28;20162;-62
2021/11/08 03:35:01;;;;;;;36.40;16.95;;;;;;;10.75;100.00;97000.81;4965538;28;20054;-64
2021/11/08 03:37:29;;;;;;;26.40;15.07;;;;;;;10.73;100.00;97020.59;4964912;28;20545;-64
2021/11/08 03:39:56;;;;;;;26.65;12.75;;;;;;;10.72;100.00;97018.97;4966928;28;20054;-65
2021/11/08 03:42:23;;;;;;;25.58;10.73;;;;;;;10.66;100.00;97021.28;4966108;28;20057;-65
2021/11/08 03:44:49;;;;;;;24.38;11.68;;;;;;;10.65;100.00;97018.88;4966487;28;20054;-64
2021/11/08 03:47:17;;;;;;;15.70;8.45;;;;;;;10.65;100.00;97022.44;4966019;28;20061;-65
2021/11/08 03:49:43;;;;;;;21.08;8.95;;;;;;;10.61;100.00;97021.59;4966834;28;20051;-64
2021/11/08 03:52:10;;;;;;;23.13;7.90;;;;;;;10.55;100.00;97019.50;4965866;28;20054;-66
2021/11/08 03:54:37;;;;;;;26.88;8.02;;;;;;;9.91;100.00;96912.38;4966910;28;20073;-64
2021/11/08 03:57:04;;;;;;;19.63;8.40;;;;;;;10.36;100.00;96978.84;4966267;28;20067;-63
2021/11/08 03:59:31;;;;;;;22.88;8.77;;;;;;;10.39;100.00;97018.81;4964821;28;20058;-64
2021/11/08 04:02:00;;;;;;;17.70;8.25;;;;;;;10.22;100.00;97000.75;4964919;28;20352;-65
2021/11/08 04:04:27;;;;;;;20.55;9.40;;;;;;;10.30;100.00;96991.41;4964736;28;20055;-65
2021/11/08 04:06:54;;;;;;;20.92;9.18;;;;;;;10.40;100.00;97010.13;4965635;28;20089;-63
2021/11/08 04:09:21;;;;;;;14.20;7.97;;;;;;;10.09;100.00;96952.28;4964295;28;20047;-64
2021/11/08 04:11:49;;;;;;;15.70;7.65;;;;;;;10.46;100.00;96999.56;4965678;28;20101;-65
2021/11/08 04:14:17;;;;;;;18.42;10.00;;;;;;;10.38;100.00;96993.13;4965624;28;20064;-64
2021/11/08 04:16:44;;;;;;;32.92;13.63;;;;;;;10.40;100.00;96993.53;4965720;28;20058;-64
2021/11/08 04:19:12;;;;;;;32.25;16.73;;;;;;;9.75;100.00;96908.97;4966019;28;20256;-65
2021/11/08 04:21:40;;;;;;;28.35;11.85;;;;;;;10.34;100.00;96986.72;4963725;28;20054;-66
2021/11/08 04:24:07;;;;;;;26.17;11.32;;;;;;;10.39;100.00;96988.34;4965808;28;20873;-64
2021/11/08 04:26:36;;;;;;;19.25;9.73;;;;;;;10.38;100.00;96992.31;4963914;28;20070;-64
2021/11/08 04:29:04;;;;;;;17.35;8.40;;;;;;;9.99;100.00;96919.63;4965533;28;20050;-66
2021/11/08 04:31:35;;;;;;;15.98;7.75;;;;;;;10.28;100.00;96993.72;4965305;28;20054;-64
2021/11/08 04:34:17;;;;;;;18.98;9.20;;;;;;;10.23;100.00;96996.00;4964687;28;20051;-65
2021/11/08 04:39:40;;;;;;;15.07;6.75;;;;;;;10.34;100.00;96991.44;4966135;28;20062;-63
2021/11/08 05:22:12;;;;;;;19.35;6.63;;;;;;;10.51;100.00;97008.34;4964788;28;20105;-66
2021/11/08 05:30:09;;;;;;;16.40;7.65;;;;;;;10.57;100.00;97012.41;4964897;28;20058;-63
2021/11/08 05:32:39;;;;;;;25.05;9.68;;;;;;;10.65;100.00;97014.13;4964091;28;20055;-64
2021/11/08 05:35:09;;;;;;;19.80;8.02;;;;;;;8.62;100.00;96709.06;4964473;28;20156;-64
2021/11/08 05:37:37;;;;;;;30.00;11.50;;;;;;;10.56;100.00;96974.81;4962577;28;20464;-64
2021/11/08 05:40:15;;;;;;;24.83;9.85;;;;;;;10.91;100.00;97023.63;4965186;28;20047;-62
2021/11/08 05:42:43;;;;;;;33.00;13.25;;;;;;;10.99;100.00;97006.72;4963337;28;20059;-64
2021/11/08 05:45:14;;;;;;;38.97;15.57;;;;;;;10.93;100.00;96991.59;4964308;28;20066;-62
2021/11/08 05:47:41;;;;;;;44.92;17.27;;;;;;;10.42;100.00;96910.91;4964202;28;20058;-63
2021/11/08 05:50:10;;;;;;;57.90;24.38;;;;;;;10.52;100.00;96920.53;4962814;28;20070;-63
2021/11/08 05:52:37;;;;;;;56.95;26.25;;;;;;;11.21;100.00;97008.63;4964015;28;20059;-63
2021/11/08 05:55:08;;;;;;;60.88;27.85;;;;;;;11.32;100.00;97014.31;4962564;28;20129;-63
2021/11/08 06:50:16;;;;;;;45.17;17.33;;;;;;;13.19;100.00;96862.91;4966638;28;20055;-67
2021/11/08 06:52:49;;;;;;;29.35;15.50;;;;;;;14.40;100.00;97020.78;4966917;28;20071;-63
2021/11/08 06:55:17;;;;;;;;;;;;;;;14.53;96.69;97019.16;4964200;28;20105;-62
2021/11/08 06:57:46;;;;;;;34.75;11.00;;;;;;;14.69;97.63;97019.59;4964395;28;20021;-65
2021/11/08 07:00:16;;;;;;;14.07;6.53;;;;;;;14.91;97.42;97008.03;4969376;28;20098;-63
2021/11/08 07:02:43;;;;;;;13.88;6.30;;;;;;;14.67;96.93;96935.53;4954969;28;20055;-63
2021/11/08 07:05:11;;;;;;;12.70;5.35;;;;;;;15.33;97.18;97015.56;4963180;28;20085;-61
2021/11/08 07:07:37;;;;;;;11.57;5.30;;;;;;;15.55;96.06;97013.56;4965990;28;20055;-65
2021/11/08 07:10:06;;;;;;;8.73;4.80;;;;;;;14.78;94.37;96874.97;4965974;28;20078;-63
2021/11/08 07:12:33;;;;;;;14.68;5.85;;;;;;;15.78;92.46;96967.19;4964017;28;20293;-62
2021/11/08 07:15:00;;;;;;;15.43;6.05;;;;;;;16.11;88.38;96997.34;4955059;28;20078;-66
2021/11/08 07:17:26;;;;;;;17.13;5.72;;;;;;;16.09;87.61;96987.78;4967378;28;20054;-62
2021/11/08 07:19:53;;;;;;;13.98;6.07;;;;;;;15.68;87.49;96912.16;4969108;28;20057;-62
2021/11/08 07:22:20;;;;;;;10.85;5.43;;;;;;;16.31;85.76;96990.03;4977531;28;20414;-66
2021/11/08 07:24:47;;;;;;;14.93;6.05;;;;;;;15.81;85.14;96892.94;4952143;28;20053;-64
2021/11/08 07:27:14;;;;;;;12.82;5.72;;;;;;;16.67;84.76;96984.22;4963728;28;20435;-61
2021/11/08 07:29:41;;;;;;;14.38;5.55;;;;;;;16.74;82.21;96992.56;4964451;28;20043;-64
2021/11/08 07:32:08;;;;;;;20.23;6.60;;;;;;;16.94;82.85;96985.22;4957190;28;20129;-63
2021/11/08 07:34:35;;;;;;;11.18;6.55;;;;;;;16.43;80.87;96880.53;4960471;28;20130;-65
2021/11/08 07:37:02;;;;;;;17.27;7.05;;;;;;;16.88;78.88;96950.50;4946758;28;20047;-67
2021/11/08 07:39:29;;;;;;;17.30;7.93;;;;;;;17.35;79.37;96974.81;4946672;28;21052;-67
2021/11/08 07:41:57;;;;;;;17.13;7.78;;;;;;;16.94;79.70;96906.84;4963418;28;20542;-61
2021/11/08 07:44:24;;;;;;;16.60;8.07;;;;;;;17.68;79.76;96990.88;4956366;28;20134;-68
2021/11/08 07:46:50;;;;;;;16.30;7.88;;;;;;;17.50;77.89;96915.44;4957928;28;20066;-66
2021/11/08 07:49:17;;;;;;;30.40;15.57;;;;;;;17.74;77.20;96927.56;4951321;28;20069;-62
2021/11/08 07:51:44;;;;;;;40.88;19.58;;;;;;;17.87;76.51;96935.00;4953300;28;20243;-66
2021/11/08 07:54:10;;;;;;;20.08;11.68;;;;;;;17.42;75.25;96821.50;4954016;28;20066;-68
2021/11/08 07:56:37;;;;;;;22.90;10.35;;;;;;;18.37;76.58;96957.50;4958675;28;20066;-63
2021/11/08 07:59:04;;;;;;;18.90;7.75;;;;;;;18.49;76.44;96971.00;4961310;28;20054;-64
2021/11/08 08:01:31;;;;;;;17.33;9.77;;;;;;;18.70;76.57;96953.03;4962967;28;20055;-60
2021/11/08 08:03:58;;;;;;;21.50;9.95;;;;;;;18.88;75.98;96951.50;4952213;28;20043;-65
2021/11/08 08:06:24;;;;;;;14.02;6.70;;;;;;;19.11;72.66;96945.09;4965366;28;20068;-64
2021/11/08 08:08:52;;;;;;;15.70;7.03;;;;;;;19.10;72.89;96957.53;4957509;28;20069;-64
2021/11/08 08:11:19;;;;;;;14.15;6.82;;;;;;;18.56;72.53;96892.31;4957105;28;20065;-66
2021/11/08 08:13:47;;;;;;;12.20;6.45;;;;;;;18.69;73.00;96856.81;4957003;28;20067;-63
2021/11/08 08:16:17;;;;;;;14.00;7.25;;;;;;;18.53;71.91;96802.59;4962854;28;20147;-66
2021/11/08 08:18:46;;;;;;;11.65;6.47;;;;;;;19.40;71.89;96932.94;4961548;28;20417;-66
2021/11/08 08:21:14;;;;;;;14.45;5.97;;;;;;;19.10;71.83;96865.69;4952426;28;20050;-63
2021/11/08 08:23:54;;;;;;;19.83;6.53;;;;;;;19.33;70.56;96893.72;4947941;28;20526;-68
2021/11/08 08:26:24;;;;;;;13.18;6.35;;;;;;;19.51;70.35;96902.63;4944015;28;20058;-68
2021/11/08 08:28:52;;;;;;;9.40;5.18;;;;;;;18.97;67.42;96838.66;4944538;28;20153;-69
2021/11/08 08:31:18;;;;;;;11.45;5.07;;;;;;;19.16;69.22;96931.34;4945539;28;20059;-65
2021/11/08 08:33:45;;;;;;;13.65;5.88;;;;;;;19.41;70.51;96914.84;4944869;29;20417;-66
2021/11/08 08:36:12;;;;;;;8.68;5.28;;;;;;;18.93;70.77;96849.97;4963822;28;20540;-67
2021/11/08 08:38:39;;;;;;;16.17;6.32;;;;;;;19.40;70.22;96890.00;4965238;28;20437;-68
2021/11/08 08:41:06;;;;;;;13.68;6.10;;;;;;;19.47;70.44;96917.97;4962947;28;20061;-66
2021/11/08 08:43:32;;;;;;;11.15;5.05;;;;;;;19.29;70.22;96859.31;4965240;28;20054;-67
2021/11/08 08:46:00;;;;;;;14.27;6.75;;;;;;;19.63;69.08;96894.75;4964572;28;20085;-70
2021/11/08 08:48:28;;;;;;;37.35;13.18;;;;;;;19.97;68.77;96917.72;4962910;28;20472;-69
2021/11/08 08:50:55;;;;;;;17.67;5.80;;;;;;;18.28;65.96;96674.03;4962476;28;20569;-66
2021/11/08 08:53:21;;;;;;;9.75;4.05;;;;;;;19.55;64.07;96917.38;4964561;28;20046;-66
2021/11/08 08:55:49;;;;;;;10.02;3.90;;;;;;;19.22;66.52;96873.47;4963062;28;20058;-72
2021/11/08 08:58:16;;;;;;;10.23;4.57;;;;;;;18.65;66.49;96701.75;4964002;28;20061;-66
2021/11/08 09:00:47;;;;;;;17.15;7.65;;;;;;;20.25;66.55;96922.75;4963819;28;20092;-65
2021/11/08 09:03:18;;;;;;;8.98;5.30;;;;;;;20.26;64.98;96862.44;4952444;28;20400;-65
2021/11/08 09:05:46;;;;;;;15.70;4.10;;;;;;;20.63;60.56;96904.13;4958278;28;20051;-64
2021/11/08 09:08:13;;;;;;;8.65;4.47;;;;;;;20.68;59.09;96867.00;4963683;28;20082;-74
2021/11/08 09:10:42;;;;;;;7.43;3.83;;;;;;;20.70;55.03;96903.97;4962579;28;20061;-66
2021/11/08 09:13:14;;;;;;;5.07;4.00;;;;;;;20.63;54.66;96895.69;4964236;28;20057;-69
2021/11/08 09:15:41;;;;;;;7.25;4.13;;;;;;;18.87;53.90;96626.34;4964336;28;20055;-68
2021/11/08 09:18:09;;;;;;;6.43;4.20;;;;;;;19.84;54.10;96720.78;4956574;28;20528;-71
2021/11/08 09:20:38;;;;;;;9.45;4.53;;;;;;;19.47;55.74;96637.00;4957472;28;20142;-70
2021/11/08 09:23:06;;;;;;;15.63;7.20;;;;;;;20.27;55.80;96757.09;4962509;28;20057;-72
2021/11/08 09:25:33;;;;;;;12.48;5.15;;;;;;;21.04;55.18;96855.66;4962326;28;20069;-71
2021/11/08 09:28:03;;;;;;;7.10;5.60;;;;;;;21.25;58.06;96822.03;4981956;28;20081;-68
2021/11/08 09:30:35;;;;;;;11.77;6.32;;;;;;;21.85;56.69;96885.94;4982775;28;20050;-70
2021/11/08 09:33:03;;;;;;;6.13;4.15;;;;;;;21.80;54.32;96851.84;4975959;28;20745;-73
2021/11/08 09:35:33;;;;;;;8.90;5.90;;;;;;;22.21;54.21;96882.81;4978773;28;20149;-70
2021/11/08 09:38:02;;;;;;;11.13;5.57;;;;;;;22.01;52.93;96840.72;4971310;28;20050;-65
2021/11/08 09:40:29;;;;;;;14.85;6.18;;;;;;;22.00;51.20;96886.31;4963107;28;20137;-68
2021/11/08 09:42:56;;;;;;;10.60;5.45;;;;;;;21.13;53.53;96768.47;4961962;28;20069;-71
2021/11/08 09:45:24;;;;;;;10.80;5.72;;;;;;;22.12;52.81;96877.06;4962926;28;20047;-72
2021/11/08 09:47:51;;;;;;;18.10;9.55;;;;;;;22.10;53.22;96871.06;4963173;28;20054;-69
2021/11/08 09:50:22;;;;;;;16.70;7.13;;;;;;;22.02;52.03;96864.09;4963747;28;20070;-67
2021/11/08 09:52:50;;;;;;;10.10;5.78;;;;;;;21.47;52.09;96797.63;4963497;28;20154;-68
2021/11/08 09:55:22;;;;;;;17.58;7.05;;;;;;;21.65;52.96;96834.56;4960267;28;20057;-71
2021/11/08 09:57:52;;;;;;;16.30;7.38;;;;;;;21.75;51.51;96827.81;4954604;28;20498;-72
2021/11/08 10:00:25;;;;;;;15.73;6.80;;;;;;;22.24;50.88;96857.31;4961135;28;20493;-69
2021/11/08 10:02:55;;;;;;;11.05;6.60;;;;;;;22.56;49.97;96858.38;4967475;28;20106;-70
2021/11/08 10:05:25;;;;;;;12.50;6.47;;;;;;;21.47;48.39;96794.81;4966695;28;20529;-70
2021/11/08 10:07:53;;;;;;;13.77;5.72;;;;;;;22.23;48.37;96855.75;4955856;28;20055;-68
2021/11/08 10:10:20;;;;;;;9.88;6.45;;;;;;;21.81;48.46;96730.16;4965981;28;20054;-69
2021/11/08 10:12:49;;;;;;;11.73;6.55;;;;;;;22.54;48.27;96849.56;4965983;28;20073;-70
2021/11/08 10:15:18;;;;;;;21.38;10.27;;;;;;;22.55;49.84;96842.66;4965638;28;20050;-71
2021/11/08 10:17:46;;;;;;;11.60;5.70;;;;;;;21.84;50.23;96791.31;4963286;28;20046;-65
2021/11/08 10:20:29;;;;;;;18.80;7.85;;;;;;;22.24;50.27;96837.56;4964291;28;20053;-73
2021/11/08 10:22:57;;;;;;;8.40;5.85;;;;;;;22.52;49.76;96824.59;4965601;28;20058;-71
2021/11/08 10:25:25;;;;;;;8.85;5.40;;;;;;;22.79;49.61;96827.72;4965980;28;20054;-69
2021/11/08 10:27:52;;;;;;;7.28;5.68;;;;;;;22.98;49.17;96828.66;4966656;28;20101;-70
2021/11/08 10:30:35;;;;;;;15.02;5.93;;;;;;;22.94;48.23;96782.78;4964984;28;20158;-72
2021/11/08 10:33:13;;;;;;;9.93;6.65;;;;;;;23.41;48.33;96818.22;4967274;28;20133;-71
2021/11/08 10:35:44;;;;;;;15.13;7.22;;;;;;;22.03;47.01;96575.91;4965590;28;20067;-71
2021/11/08 10:38:24;;;;;;;11.80;7.72;;;;;;;23.10;48.04;96820.16;4967306;28;20058;-71
2021/11/08 10:40:55;;;;;;;15.88;6.18;;;;;;;22.91;46.85;96753.44;4966707;28;20066;-71
2021/11/08 10:43:31;;;;;;;9.98;6.32;;;;;;;22.70;47.78;96773.94;4966819;28;20047;-70
2021/11/08 10:46:01;;;;;;;9.60;6.28;;;;;;;22.75;47.91;96784.66;4967094;28;20070;-70
2021/11/08 10:48:32;;;;;;;9.57;5.90;;;;;;;22.98;48.48;96812.50;4965612;28;20054;-71
2021/11/08 10:51:01;;;;;;;15.70;8.82;;;;;;;23.03;48.69;96785.72;4965391;28;20051;-69
2021/11/08 10:53:30;;;;;;;28.75;11.48;;;;;;;22.63;48.11;96739.53;4967211;28;20067;-69
2021/11/08 10:56:06;;;;;;;55.42;18.80;;;;;;;23.35;48.35;96802.31;4966784;28;20141;-69
2021/11/08 10:58:34;;;;;;;36.60;13.25;;;;;;;22.96;48.38;96729.44;4966940;28;20055;-71
2021/11/08 11:01:02;;;;;;;21.25;10.05;;;;;;;23.47;48.28;96792.97;4966321;28;20458;-70
2021/11/08 11:03:30;;;;;;;37.75;17.38;;;;;;;23.41;48.10;96789.16;4966323;28;20137;-71
2021/11/08 11:06:04;;;;;;;30.77;12.52;;;;;;;23.38;47.28;96767.44;4966568;28;20064;-71
2021/11/08 11:08:33;;;;;;;18.33;9.48;;;;;;;23.68;46.98;96797.81;4966664;28;20062;-71
2021/11/08 11:11:05;;;;;;;13.80;6.75;;;;;;;23.02;46.00;96693.69;4965902;28;20130;-71
2021/11/08 11:13:35;;;;;;;13.82;7.05;;;;;;;23.44;45.86;96782.59;4966708;28;20059;-72
2021/11/08 11:16:04;;;;;;;10.27;6.70;;;;;;;22.47;46.11;96641.63;4964701;28;20061;-71
2021/11/08 11:18:34;;;;;;;16.15;8.93;;;;;;;22.43;46.98;96574.00;4964656;28;20138;-72
2021/11/08 11:21:20;;;;;;;16.67;6.50;;;;;;;23.62;44.95;96720.47;4964943;28;20062;-72
2021/11/08 11:23:50;;;;;;;15.52;7.63;;;;;;;24.15;46.50;96784.25;4965046;28;20053;-71
2021/11/08 11:26:20;;;;;;;12.02;7.13;;;;;;;24.38;44.52;96774.41;4965885;28;20533;-72
2021/11/08 11:28:50;;;;;;;8.50;6.07;;;;;;;24.09;44.20;96737.97;4966040;28;20473;-71
2021/11/08 11:31:23;;;;;;;8.85;6.38;;;;;;;23.32;44.17;96634.41;4966094;28;20159;-72
2021/11/08 11:33:54;;;;;;;7.25;5.70;;;;;;;24.48;43.44;96782.47;4947426;29;20406;-69
2021/11/08 11:36:22;;;;;;;7.15;5.57;;;;;;;23.57;43.96;96594.59;4946325;29;20057;-70
2021/11/08 11:39:00;;;;;;;10.65;5.85;;;;;;;24.83;43.11;96775.31;4944105;29;20097;-71
2021/11/08 11:41:30;;;;;;;9.27;5.75;;;;;;;24.55;42.61;96742.50;4943407;29;20070;-70
2021/11/08 11:44:04;;;;;;;13.73;6.55;;;;;;;24.99;42.22;96772.16;4946242;28;20490;-71
2021/11/08 11:46:35;;;;;;;8.05;5.65;;;;;;;24.93;40.02;96740.03;4946419;29;20089;-70
2021/11/08 11:49:03;;;;;;;9.13;5.75;;;;;;;25.47;40.31;96769.66;4946855;29;20133;-69
2021/11/08 11:51:34;;;;;;;11.77;6.25;;;;;;;25.66;38.01;96768.34;4946454;29;20477;-69
2021/11/08 11:54:02;;;;;;;13.52;6.72;;;;;;;25.68;37.34;96771.50;4964668;28;20482;-69
2021/11/08 11:56:30;;;;;;;16.00;7.70;;;;;;;25.55;39.13;96763.19;4963168;28;20069;-71
2021/11/08 11:58:59;;;;;;;12.57;6.15;;;;;;;25.72;39.63;96772.13;4965683;28;20051;-69
2021/11/08 12:01:28;;;;;;;8.45;5.93;;;;;;;25.50;37.57;96760.22;4946435;28;20134;-69
2021/11/08 12:04:11;;;;;;;12.48;6.10;;;;;;;25.34;38.56;96757.72;4946259;29;20065;-64
2021/11/08 12:06:40;;;;;;;7.32;5.88;;;;;;;24.73;39.19;96656.78;4957949;28;20070;-66
2021/11/08 12:09:12;;;;;;;10.85;5.88;;;;;;;25.10;40.26;96715.78;4962006;28;20057;-66
2021/11/08 12:11:59;;;;;;;8.05;5.57;;;;;;;24.94;40.23;96718.94;4964177;28;20696;-66
2021/11/08 12:14:32;;;;;;;8.82;5.60;;;;;;;25.43;40.25;96754.84;4955551;28;20061;-71
2021/11/08 12:17:02;;;;;;;6.80;5.47;;;;;;;25.46;39.19;96759.56;4951676;28;21547;-70
2021/11/08 12:19:36;;;;;;;24.67;13.98;;;;;;;25.40;39.98;96721.78;4964479;28;20123;-69
2021/11/08 12:22:19;;;;;;;12.68;7.47;;;;;;;25.81;38.94;96757.91;4963070;28;20166;-64
2021/11/08 12:24:59;;;;;;;9.30;6.55;;;;;;;24.96;37.59;96602.28;4956882;28;20062;-67
2021/11/08 12:27:37;;;;;;;7.75;6.22;;;;;;;25.90;38.11;96755.03;4963072;28;20061;-67
2021/11/08 12:30:17;;;;;;;8.93;5.93;;;;;;;23.62;38.33;96381.88;4962599;28;20047;-65
2021/11/08 12:32:52;;;;;;;14.35;6.78;;;;;;;25.93;38.92;96740.69;4963679;28;21584;-64
2021/11/08 12:35:30;;;;;;;6.28;5.72;;;;;;;25.67;37.88;96701.84;4963975;28;20058;-62
2021/11/08 12:37:57;;;;;;;9.38;5.40;;;;;;;25.71;36.12;96696.75;4963796;28;20521;-68
2021/11/08 12:40:32;;;;;;;16.55;6.45;;;;;;;25.17;37.90;96646.63;4964492;28;20477;-67
2021/11/08 12:42:59;;;;;;;12.95;6.20;;;;;;;25.37;38.47;96700.03;4956625;28;20055;-67
2021/11/08 12:45:29;;;;;;;14.45;6.88;;;;;;;25.53;38.77;96702.53;4964626;28;20137;-67
2021/11/08 12:48:07;;;;;;;6.35;5.75;;;;;;;25.79;38.85;96737.72;4964752;28;20142;-67
2021/11/08 12:50:53;;;;;;;10.35;6.47;;;;;;;23.73;38.28;96433.09;4951273;28;20059;-69
2021/11/08 12:53:29;;;;;;;7.65;5.63;;;;;;;25.62;37.95;96739.38;4943347;28;20059;-69
2021/11/08 12:55:59;;;;;;;8.65;5.50;;;;;;;24.68;38.53;96624.19;4962682;28;20110;-71
2021/11/08 12:58:33;;;;;;;7.75;5.50;;;;;;;25.53;39.47;96736.56;4963980;28;20050;-70
2021/11/08 13:01:01;;;;;;;8.57;5.53;;;;;;;25.10;39.59;96693.09;4961371;28;20080;-69
2021/11/08 13:03:40;;;;;;;10.65;5.78;;;;;;;25.30;38.75;96733.09;4950617;28;20039;-70
2021/11/08 13:06:34;;;;;;;10.02;5.25;;;;;;;25.32;38.33;96739.06;4960741;28;20072;-66
2021/11/08 13:09:25;;;;;;;8.90;5.20;;;;;;;25.15;39.24;96735.00;4958390;28;20134;-65
2021/11/08 13:11:55;;;;;;;26.42;9.30;;;;;;;24.73;39.71;96730.44;4960530;28;20093;-65
2021/11/08 13:14:27;;;;;;;8.18;6.45;;;;;;;24.89;38.74;96733.75;4961629;28;20047;-69